sensor_id;sensor_type;location;lat;lon;timestamp;temperature;humidity
9323;DHT22;4700;48.822;9.270;2022-12-10T00:01:47;2.30;1.00
9323;DHT22;4700;48.822;9.270;2022-12-10T00:04:32;2.20;1.00
9323;DHT22;4700;48.822;9.270;2022-12-10T00:07:19;2.00;1.00
9323;DHT22;4700;48.822;9.270;2022-12-10T00:10:06;2.10;1.00
9323;DHT22;4700;48.822;9.270;2022-12-10T00:12:52;2.10;1.00
9323;DHT22;4700;48.822;9.270;2022-12-10T00:15:42;2.10;1.00
9323;DHT22;4700;48.822;9.270;2022-12-10T00:18:28;2.80;1.00
9323;DHT22;4700;48.822;9.270;2022-12-10T00:21:16;2.20;1.00
9323;DHT22;4700;48.822;9.270;2022-12-10T00:24:04;2.20;1.00
9323;DHT22;4700;48.822;9.270;2022-12-10T00:27:01;2.20;1.00
9323;DHT22;4700;48.822;9.270;2022-12-10T00:29:48;2.20;1.00
9323;DHT22;4700;48.822;9.270;2022-12-10T00:32:38;2.20;1.00
9323;DHT22;4700;48.822;9.270;2022-12-10T00:35:25;2.20;1.00
9323;DHT22;4700;48.822;9.270;2022-12-10T00:38:15;2.20;1.00
9323;DHT22;4700;48.822;9.270;2022-12-10T00:41:02;2.20;1.00
9323;DHT22;4700;48.822;9.270;2022-12-10T00:43:55;2.10;1.00
9323;DHT22;4700;48.822;9.270;2022-12-10T00:46:45;2.20;1.00
9323;DHT22;4700;48.822;9.270;2022-12-10T00:49:37;1.90;1.00
9323;DHT22;4700;48.822;9.270;2022-12-10T00:52:24;1.90;1.00
9323;DHT22;4700;48.822;9.270;2022-12-10T00:55:12;2.00;1.00
9323;DHT22;4700;48.822;9.270;2022-12-10T00:57:59;2.00;1.00
9323;DHT22;4700;48.822;9.270;2022-12-10T01:00:45;2.10;1.00
9323;DHT22;4700;48.822;9.270;2022-12-10T01:03:31;2.00;1.00
9323;DHT22;4700;48.822;9.270;2022-12-10T01:06:22;2.00;1.00
9323;DHT22;4700;48.822;9.270;2022-12-10T01:09:11;2.00;1.00
9323;DHT22;4700;48.822;9.270;2022-12-10T01:12:00;2.20;1.00
9323;DHT22;4700;48.822;9.270;2022-12-10T01:14:50;2.00;1.00
9323;DHT22;4700;48.822;9.270;2022-12-10T01:17:36;2.10;1.00
9323;DHT22;4700;48.822;9.270;2022-12-10T01:20:22;2.10;1.00
9323;DHT22;4700;48.822;9.270;2022-12-10T01:23:13;2.10;1.00
9323;DHT22;4700;48.822;9.270;2022-12-10T01:26:09;2.20;1.00
9323;DHT22;4700;48.822;9.270;2022-12-10T01:28:58;2.20;1.00
9323;DHT22;4700;48.822;9.270;2022-12-10T01:31:44;2.20;1.00
9323;DHT22;4700;48.822;9.270;2022-12-10T01:34:32;2.10;1.00
9323;DHT22;4700;48.822;9.270;2022-12-10T01:37:21;2.10;1.00
9323;DHT22;4700;48.822;9.270;2022-12-10T01:40:15;2.10;1.00
9323;DHT22;4700;48.822;9.270;2022-12-10T01:43:01;2.20;1.00
9323;DHT22;4700;48.822;9.270;2022-12-10T01:45:49;2.10;1.00
9323;DHT22;4700;48.822;9.270;2022-12-10T01:48:36;2.10;1.00
9323;DHT22;4700;48.822;9.270;2022-12-10T01:51:25;2.10;1.00
9323;DHT22;4700;48.822;9.270;2022-12-10T01:54:19;2.10;1.00
9323;DHT22;4700;48.822;9.270;2022-12-10T01:57:17;2.10;1.00
9323;DHT22;4700;48.822;9.270;2022-12-10T02:00:06;2.10;1.00
9323;DHT22;4700;48.822;9.270;2022-12-10T02:02:57;2.10;1.00
9323;DHT22;4700;48.822;9.270;2022-12-10T02:05:54;2.10;1.00
9323;DHT22;4700;48.822;9.270;2022-12-10T02:08:55;2.00;1.00
9323;DHT22;4700;48.822;9.270;2022-12-10T02:11:48;2.00;1.00
9323;DHT22;4700;48.822;9.270;2022-12-10T02:14:48;2.40;1.00
9323;DHT22;4700;48.822;9.270;2022-12-10T02:17:38;2.00;1.00
9323;DHT22;4700;48.822;9.270;2022-12-10T02:20:30;1.90;1.00
9323;DHT22;4700;48.822;9.270;2022-12-10T02:23:21;1.90;1.00
9323;DHT22;4700;48.822;9.270;2022-12-10T02:26:13;2.00;1.00
9323;DHT22;4700;48.822;9.270;2022-12-10T02:29:12;1.90;1.00
9323;DHT22;4700;48.822;9.270;2022-12-10T02:32:01;1.90;1.00
9323;DHT22;4700;48.822;9.270;2022-12-10T02:34:50;2.00;1.00
9323;DHT22;4700;48.822;9.270;2022-12-10T02:37:41;1.80;1.00
9323;DHT22;4700;48.822;9.270;2022-12-10T02:40:33;1.60;1.00
9323;DHT22;4700;48.822;9.270;2022-12-10T02:43:22;1.70;1.00
9323;DHT22;4700;48.822;9.270;2022-12-10T02:46:12;1.80;1.00
9323;DHT22;4700;48.822;9.270;2022-12-10T02:49:01;1.80;1.00
9323;DHT22;4700;48.822;9.270;2022-12-10T02:51:52;1.90;1.00
9323;DHT22;4700;48.822;9.270;2022-12-10T02:54:43;1.80;1.00
9323;DHT22;4700;48.822;9.270;2022-12-10T02:57:37;1.80;1.00
9323;DHT22;4700;48.822;9.270;2022-12-10T03:00:32;1.80;1.00
9323;DHT22;4700;48.822;9.270;2022-12-10T03:03:31;1.70;1.00
9323;DHT22;4700;48.822;9.270;2022-12-10T03:06:27;1.70;1.00
9323;DHT22;4700;48.822;9.270;2022-12-10T03:09:19;1.70;1.00
9323;DHT22;4700;48.822;9.270;2022-12-10T03:12:16;1.70;1.00
9323;DHT22;4700;48.822;9.270;2022-12-10T03:15:09;1.70;1.00
9323;DHT22;4700;48.822;9.270;2022-12-10T03:17:57;1.70;1.00
9323;DHT22;4700;48.822;9.270;2022-12-10T03:20:55;1.70;1.00
9323;DHT22;4700;48.822;9.270;2022-12-10T03:23:47;1.90;1.00
9323;DHT22;4700;48.822;9.270;2022-12-10T03:26:36;1.70;1.00
9323;DHT22;4700;48.822;9.270;2022-12-10T03:29:28;1.60;1.00
9323;DHT22;4700;48.822;9.270;2022-12-10T03:32:18;1.50;1.00
9323;DHT22;4700;48.822;9.270;2022-12-10T03:35:07;1.60;1.00
9323;DHT22;4700;48.822;9.270;2022-12-10T03:38:01;1.70;1.00
9323;DHT22;4700;48.822;9.270;2022-12-10T03:40:47;1.70;1.00
9323;DHT22;4700;48.822;9.270;2022-12-10T03:43:50;1.60;1.00
9323;DHT22;4700;48.822;9.270;2022-12-10T03:46:39;1.60;1.00
9323;DHT22;4700;48.822;9.270;2022-12-10T03:49:26;1.50;1.00
9323;DHT22;4700;48.822;9.270;2022-12-10T03:52:15;1.40;1.00
9323;DHT22;4700;48.822;9.270;2022-12-10T03:55:07;1.20;1.00
9323;DHT22;4700;48.822;9.270;2022-12-10T03:57:56;1.30;1.00
9323;DHT22;4700;48.822;9.270;2022-12-10T04:00:42;1.30;1.00
9323;DHT22;4700;48.822;9.270;2022-12-10T04:03:34;1.50;1.00
9323;DHT22;4700;48.822;9.270;2022-12-10T04:06:26;1.50;1.00
9323;DHT22;4700;48.822;9.270;2022-12-10T04:09:15;1.60;1.00
9323;DHT22;4700;48.822;9.270;2022-12-10T04:12:07;1.70;1.00
9323;DHT22;4700;48.822;9.270;2022-12-10T04:14:56;1.70;1.00
9323;DHT22;4700;48.822;9.270;2022-12-10T04:18:04;1.70;1.00
9323;DHT22;4700;48.822;9.270;2022-12-10T04:20:51;1.70;1.00
9323;DHT22;4700;48.822;9.270;2022-12-10T04:23:54;1.70;1.00
9323;DHT22;4700;48.822;9.270;2022-12-10T04:26:59;1.70;1.00
9323;DHT22;4700;48.822;9.270;2022-12-10T04:29:50;1.60;1.00
9323;DHT22;4700;48.822;9.270;2022-12-10T04:32:40;1.60;1.00
9323;DHT22;4700;48.822;9.270;2022-12-10T04:35:27;1.60;1.00
9323;DHT22;4700;48.822;9.270;2022-12-10T04:38:16;1.70;1.00
9323;DHT22;4700;48.822;9.270;2022-12-10T04:41:02;1.60;1.00
9323;DHT22;4700;48.822;9.270;2022-12-10T04:43:59;1.70;1.00
9323;DHT22;4700;48.822;9.270;2022-12-10T04:46:59;1.60;1.00
9323;DHT22;4700;48.822;9.270;2022-12-10T04:49:46;1.60;1.00
9323;DHT22;4700;48.822;9.270;2022-12-10T04:52:37;1.60;1.00
9323;DHT22;4700;48.822;9.270;2022-12-10T04:55:28;1.60;1.00
9323;DHT22;4700;48.822;9.270;2022-12-10T04:58:17;1.60;1.00
9323;DHT22;4700;48.822;9.270;2022-12-10T05:01:09;1.60;1.00
9323;DHT22;4700;48.822;9.270;2022-12-10T05:04:15;1.60;1.00
9323;DHT22;4700;48.822;9.270;2022-12-10T05:07:07;1.50;1.00
9323;DHT22;4700;48.822;9.270;2022-12-10T05:09:54;1.20;1.00
9323;DHT22;4700;48.822;9.270;2022-12-10T05:12:42;1.70;1.00
9323;DHT22;4700;48.822;9.270;2022-12-10T05:15:38;1.60;1.00
9323;DHT22;4700;48.822;9.270;2022-12-10T05:18:27;1.60;1.00
9323;DHT22;4700;48.822;9.270;2022-12-10T05:21:22;1.50;1.00
9323;DHT22;4700;48.822;9.270;2022-12-10T05:24:31;1.50;1.00
9323;DHT22;4700;48.822;9.270;2022-12-10T05:27:15;1.60;1.00
9323;DHT22;4700;48.822;9.270;2022-12-10T05:30:04;1.50;1.00
9323;DHT22;4700;48.822;9.270;2022-12-10T05:32:55;1.50;1.00
9323;DHT22;4700;48.822;9.270;2022-12-10T05:35:54;1.50;1.00
9323;DHT22;4700;48.822;9.270;2022-12-10T05:38:47;1.50;1.00
9323;DHT22;4700;48.822;9.270;2022-12-10T05:41:35;1.40;1.00
9323;DHT22;4700;48.822;9.270;2022-12-10T05:44:30;1.40;1.00
9323;DHT22;4700;48.822;9.270;2022-12-10T05:47:25;1.40;1.00
9323;DHT22;4700;48.822;9.270;2022-12-10T05:50:20;1.40;1.00
9323;DHT22;4700;48.822;9.270;2022-12-10T05:53:07;1.30;1.00
9323;DHT22;4700;48.822;9.270;2022-12-10T05:56:11;1.90;1.00
9323;DHT22;4700;48.822;9.270;2022-12-10T05:59:04;1.30;1.00
9323;DHT22;4700;48.822;9.270;2022-12-10T06:01:54;1.30;1.00
9323;DHT22;4700;48.822;9.270;2022-12-10T06:04:41;1.30;1.00
9323;DHT22;4700;48.822;9.270;2022-12-10T06:07:29;1.30;1.00
9323;DHT22;4700;48.822;9.270;2022-12-10T06:10:19;1.30;1.00
9323;DHT22;4700;48.822;9.270;2022-12-10T06:13:10;1.20;1.00
9323;DHT22;4700;48.822;9.270;2022-12-10T06:15:58;1.20;1.00
9323;DHT22;4700;48.822;9.270;2022-12-10T06:18:49;1.20;1.00
9323;DHT22;4700;48.822;9.270;2022-12-10T06:21:40;1.20;1.00
9323;DHT22;4700;48.822;9.270;2022-12-10T06:24:39;1.20;1.00
9323;DHT22;4700;48.822;9.270;2022-12-10T06:27:30;1.20;1.00
9323;DHT22;4700;48.822;9.270;2022-12-10T06:30:22;1.20;1.00
9323;DHT22;4700;48.822;9.270;2022-12-10T06:33:13;1.20;1.00
9323;DHT22;4700;48.822;9.270;2022-12-10T06:36:04;1.30;1.00
9323;DHT22;4700;48.822;9.270;2022-12-10T06:38:54;1.20;1.00
9323;DHT22;4700;48.822;9.270;2022-12-10T06:41:47;1.20;1.00
9323;DHT22;4700;48.822;9.270;2022-12-10T06:44:35;1.20;1.00
9323;DHT22;4700;48.822;9.270;2022-12-10T06:47:34;1.20;1.00
9323;DHT22;4700;48.822;9.270;2022-12-10T06:50:23;1.60;1.00
9323;DHT22;4700;48.822;9.270;2022-12-10T06:53:08;1.20;1.00
9323;DHT22;4700;48.822;9.270;2022-12-10T06:55:57;1.20;1.00
9323;DHT22;4700;48.822;9.270;2022-12-10T06:58:48;1.40;1.00
9323;DHT22;4700;48.822;9.270;2022-12-10T07:01:38;1.20;1.00
9323;DHT22;4700;48.822;9.270;2022-12-10T07:04:42;1.20;1.00
9323;DHT22;4700;48.822;9.270;2022-12-10T07:07:35;1.20;1.00
9323;DHT22;4700;48.822;9.270;2022-12-10T07:10:22;1.20;1.00
9323;DHT22;4700;48.822;9.270;2022-12-10T07:13:12;1.20;1.00
9323;DHT22;4700;48.822;9.270;2022-12-10T07:16:17;1.20;1.00
9323;DHT22;4700;48.822;9.270;2022-12-10T07:19:11;1.20;1.00
9323;DHT22;4700;48.822;9.270;2022-12-10T07:22:21;1.10;1.00
9323;DHT22;4700;48.822;9.270;2022-12-10T07:25:10;1.20;1.00
9323;DHT22;4700;48.822;9.270;2022-12-10T07:27:59;1.20;1.00
9323;DHT22;4700;48.822;9.270;2022-12-10T07:30:46;1.20;1.00
9323;DHT22;4700;48.822;9.270;2022-12-10T07:33:39;1.80;1.00
9323;DHT22;4700;48.822;9.270;2022-12-10T07:36:26;1.20;1.00
9323;DHT22;4700;48.822;9.270;2022-12-10T07:39:25;1.30;1.00
9323;DHT22;4700;48.822;9.270;2022-12-10T07:42:13;1.30;1.00
9323;DHT22;4700;48.822;9.270;2022-12-10T07:45:01;1.30;1.00
9323;DHT22;4700;48.822;9.270;2022-12-10T07:47:49;1.30;1.00
9323;DHT22;4700;48.822;9.270;2022-12-10T07:50:41;1.40;1.00
9323;DHT22;4700;48.822;9.270;2022-12-10T07:53:29;1.50;1.00
9323;DHT22;4700;48.822;9.270;2022-12-10T07:56:20;1.50;1.00
9323;DHT22;4700;48.822;9.270;2022-12-10T07:59:07;1.40;1.00
9323;DHT22;4700;48.822;9.270;2022-12-10T08:01:57;1.40;1.00
9323;DHT22;4700;48.822;9.270;2022-12-10T08:04:44;1.40;1.00
9323;DHT22;4700;48.822;9.270;2022-12-10T08:07:34;1.90;1.00
9323;DHT22;4700;48.822;9.270;2022-12-10T08:10:23;1.50;1.00
9323;DHT22;4700;48.822;9.270;2022-12-10T08:13:14;1.50;1.00
9323;DHT22;4700;48.822;9.270;2022-12-10T08:16:03;1.70;1.00
9323;DHT22;4700;48.822;9.270;2022-12-10T08:18:54;1.60;1.00
9323;DHT22;4700;48.822;9.270;2022-12-10T08:21:42;1.70;1.00
9323;DHT22;4700;48.822;9.270;2022-12-10T08:24:30;2.00;1.00
9323;DHT22;4700;48.822;9.270;2022-12-10T08:27:20;1.70;1.00
9323;DHT22;4700;48.822;9.270;2022-12-10T08:30:17;1.70;1.00
9323;DHT22;4700;48.822;9.270;2022-12-10T08:33:06;1.70;1.00
9323;DHT22;4700;48.822;9.270;2022-12-10T08:36:01;1.80;1.00
9323;DHT22;4700;48.822;9.270;2022-12-10T08:38:48;1.90;1.00
9323;DHT22;4700;48.822;9.270;2022-12-10T08:41:35;2.00;1.00
9323;DHT22;4700;48.822;9.270;2022-12-10T08:44:23;2.00;1.00
9323;DHT22;4700;48.822;9.270;2022-12-10T08:47:14;2.10;1.00
9323;DHT22;4700;48.822;9.270;2022-12-10T08:50:01;2.10;1.00
9323;DHT22;4700;48.822;9.270;2022-12-10T08:52:49;2.20;1.00
9323;DHT22;4700;48.822;9.270;2022-12-10T08:55:38;2.20;1.00
9323;DHT22;4700;48.822;9.270;2022-12-10T08:58:28;2.30;1.00
9323;DHT22;4700;48.822;9.270;2022-12-10T09:01:20;2.30;1.00
9323;DHT22;4700;48.822;9.270;2022-12-10T09:04:12;2.40;1.00
9323;DHT22;4700;48.822;9.270;2022-12-10T09:07:00;2.50;1.00
9323;DHT22;4700;48.822;9.270;2022-12-10T09:09:47;2.60;1.00
9323;DHT22;4700;48.822;9.270;2022-12-10T09:12:36;2.70;1.00
9323;DHT22;4700;48.822;9.270;2022-12-10T09:15:23;2.80;1.00
9323;DHT22;4700;48.822;9.270;2022-12-10T09:18:11;2.80;1.00
9323;DHT22;4700;48.822;9.270;2022-12-10T09:21:00;2.80;1.00
9323;DHT22;4700;48.822;9.270;2022-12-10T09:23:52;2.80;1.00
9323;DHT22;4700;48.822;9.270;2022-12-10T09:26:41;2.90;1.00
9323;DHT22;4700;48.822;9.270;2022-12-10T09:29:28;2.90;1.00
9323;DHT22;4700;48.822;9.270;2022-12-10T09:32:15;2.80;1.00
9323;DHT22;4700;48.822;9.270;2022-12-10T09:35:02;2.90;1.00
9323;DHT22;4700;48.822;9.270;2022-12-10T09:37:50;3.10;1.00
9323;DHT22;4700;48.822;9.270;2022-12-10T09:40:40;3.10;1.00
9323;DHT22;4700;48.822;9.270;2022-12-10T09:43:37;3.20;1.00
9323;DHT22;4700;48.822;9.270;2022-12-10T09:46:41;3.20;1.00
9323;DHT22;4700;48.822;9.270;2022-12-10T09:49:41;3.10;1.00
9323;DHT22;4700;48.822;9.270;2022-12-10T09:52:35;3.10;1.00
9323;DHT22;4700;48.822;9.270;2022-12-10T09:55:30;3.10;1.00
9323;DHT22;4700;48.822;9.270;2022-12-10T09:58:21;3.10;1.00
9323;DHT22;4700;48.822;9.270;2022-12-10T10:01:13;3.20;1.00
9323;DHT22;4700;48.822;9.270;2022-12-10T10:04:03;3.20;1.00
9323;DHT22;4700;48.822;9.270;2022-12-10T10:06:50;3.20;1.00
9323;DHT22;4700;48.822;9.270;2022-12-10T10:09:39;3.30;1.00
9323;DHT22;4700;48.822;9.270;2022-12-10T10:12:29;3.30;1.00
9323;DHT22;4700;48.822;9.270;2022-12-10T10:15:20;3.20;1.00
9323;DHT22;4700;48.822;9.270;2022-12-10T10:18:17;3.10;1.00
9323;DHT22;4700;48.822;9.270;2022-12-10T10:21:11;2.90;1.00
9323;DHT22;4700;48.822;9.270;2022-12-10T10:24:00;2.90;1.00
9323;DHT22;4700;48.822;9.270;2022-12-10T10:26:49;2.80;1.00
9323;DHT22;4700;48.822;9.270;2022-12-10T10:29:42;2.80;1.00
9323;DHT22;4700;48.822;9.270;2022-12-10T10:32:49;2.90;1.00
9323;DHT22;4700;48.822;9.270;2022-12-10T10:35:43;3.00;1.00
9323;DHT22;4700;48.822;9.270;2022-12-10T10:38:30;3.10;1.00
9323;DHT22;4700;48.822;9.270;2022-12-10T10:41:19;3.10;1.00
9323;DHT22;4700;48.822;9.270;2022-12-10T10:44:15;3.20;1.00
9323;DHT22;4700;48.822;9.270;2022-12-10T10:47:03;3.10;1.00
9323;DHT22;4700;48.822;9.270;2022-12-10T10:50:23;3.10;1.00
9323;DHT22;4700;48.822;9.270;2022-12-10T10:53:25;3.20;1.00
9323;DHT22;4700;48.822;9.270;2022-12-10T10:56:13;3.10;1.00
9323;DHT22;4700;48.822;9.270;2022-12-10T10:59:07;3.10;1.00
9323;DHT22;4700;48.822;9.270;2022-12-10T11:02:18;3.10;1.00
9323;DHT22;4700;48.822;9.270;2022-12-10T11:05:07;3.20;1.00
9323;DHT22;4700;48.822;9.270;2022-12-10T11:07:58;3.30;1.00
9323;DHT22;4700;48.822;9.270;2022-12-10T11:10:47;3.50;1.00
9323;DHT22;4700;48.822;9.270;2022-12-10T11:13:35;3.50;1.00
9323;DHT22;4700;48.822;9.270;2022-12-10T11:16:23;3.50;1.00
9323;DHT22;4700;48.822;9.270;2022-12-10T11:19:20;3.40;1.00
9323;DHT22;4700;48.822;9.270;2022-12-10T11:22:17;3.30;1.00
9323;DHT22;4700;48.822;9.270;2022-12-10T11:25:11;3.40;1.00
9323;DHT22;4700;48.822;9.270;2022-12-10T11:28:01;3.40;1.00
9323;DHT22;4700;48.822;9.270;2022-12-10T11:31:02;3.40;1.00
9323;DHT22;4700;48.822;9.270;2022-12-10T11:33:55;3.40;1.00
9323;DHT22;4700;48.822;9.270;2022-12-10T11:36:54;3.30;1.00
9323;DHT22;4700;48.822;9.270;2022-12-10T11:40:10;3.30;1.00
9323;DHT22;4700;48.822;9.270;2022-12-10T11:43:04;3.40;1.00
9323;DHT22;4700;48.822;9.270;2022-12-10T11:46:04;3.50;1.00
9323;DHT22;4700;48.822;9.270;2022-12-10T11:49:05;3.50;1.00
9323;DHT22;4700;48.822;9.270;2022-12-10T11:52:01;3.50;1.00
9323;DHT22;4700;48.822;9.270;2022-12-10T11:55:02;3.50;1.00
9323;DHT22;4700;48.822;9.270;2022-12-10T11:58:01;3.50;1.00
9323;DHT22;4700;48.822;9.270;2022-12-10T12:00:57;3.40;1.00
9323;DHT22;4700;48.822;9.270;2022-12-10T12:07:25;3.40;1.00
9323;DHT22;4700;48.822;9.270;2022-12-10T12:13:51;3.70;1.00
9323;DHT22;4700;48.822;9.270;2022-12-10T12:16:47;3.70;1.00
9323;DHT22;4700;48.822;9.270;2022-12-10T12:19:37;3.60;1.00
9323;DHT22;4700;48.822;9.270;2022-12-10T12:22:28;3.70;1.00
9323;DHT22;4700;48.822;9.270;2022-12-10T12:25:22;3.70;1.00
9323;DHT22;4700;48.822;9.270;2022-12-10T12:28:14;3.60;1.00
9323;DHT22;4700;48.822;9.270;2022-12-10T12:31:06;3.50;1.00
9323;DHT22;4700;48.822;9.270;2022-12-10T12:33:59;3.50;1.00
9323;DHT22;4700;48.822;9.270;2022-12-10T12:36:47;3.50;1.00
9323;DHT22;4700;48.822;9.270;2022-12-10T12:39:43;3.50;1.00
9323;DHT22;4700;48.822;9.270;2022-12-10T12:42:40;3.50;1.00
9323;DHT22;4700;48.822;9.270;2022-12-10T12:45:34;3.40;1.00
9323;DHT22;4700;48.822;9.270;2022-12-10T12:48:26;3.40;1.00
9323;DHT22;4700;48.822;9.270;2022-12-10T12:51:19;3.30;1.00
9323;DHT22;4700;48.822;9.270;2022-12-10T12:54:10;3.30;1.00
9323;DHT22;4700;48.822;9.270;2022-12-10T12:57:10;3.40;1.00
9323;DHT22;4700;48.822;9.270;2022-12-10T13:00:03;3.30;1.00
9323;DHT22;4700;48.822;9.270;2022-12-10T13:03:05;3.30;1.00
9323;DHT22;4700;48.822;9.270;2022-12-10T13:05:52;3.30;1.00
9323;DHT22;4700;48.822;9.270;2022-12-10T13:08:45;3.40;1.00
9323;DHT22;4700;48.822;9.270;2022-12-10T13:11:35;3.50;1.00
9323;DHT22;4700;48.822;9.270;2022-12-10T13:14:32;3.60;1.00
9323;DHT22;4700;48.822;9.270;2022-12-10T13:17:27;3.50;1.00
9323;DHT22;4700;48.822;9.270;2022-12-10T13:20:35;3.50;1.00
9323;DHT22;4700;48.822;9.270;2022-12-10T13:23:34;3.40;1.00
9323;DHT22;4700;48.822;9.270;2022-12-10T13:26:33;3.30;1.00
9323;DHT22;4700;48.822;9.270;2022-12-10T13:29:25;3.30;1.00
9323;DHT22;4700;48.822;9.270;2022-12-10T13:32:18;3.30;1.00
9323;DHT22;4700;48.822;9.270;2022-12-10T13:35:33;3.10;1.00
9323;DHT22;4700;48.822;9.270;2022-12-10T13:38:28;3.40;1.00
9323;DHT22;4700;48.822;9.270;2022-12-10T13:41:16;3.10;1.00
9323;DHT22;4700;48.822;9.270;2022-12-10T13:44:35;3.10;1.00
9323;DHT22;4700;48.822;9.270;2022-12-10T13:47:25;3.10;1.00
9323;DHT22;4700;48.822;9.270;2022-12-10T13:50:18;3.20;1.00
9323;DHT22;4700;48.822;9.270;2022-12-10T13:53:10;3.20;1.00
9323;DHT22;4700;48.822;9.270;2022-12-10T13:56:03;3.10;1.00
9323;DHT22;4700;48.822;9.270;2022-12-10T13:59:15;3.10;1.00
9323;DHT22;4700;48.822;9.270;2022-12-10T14:02:25;3.00;1.00
9323;DHT22;4700;48.822;9.270;2022-12-10T14:08:32;2.90;1.00
9323;DHT22;4700;48.822;9.270;2022-12-10T14:11:23;2.90;1.00
9323;DHT22;4700;48.822;9.270;2022-12-10T14:14:15;2.80;1.00
9323;DHT22;4700;48.822;9.270;2022-12-10T14:17:12;2.80;1.00
9323;DHT22;4700;48.822;9.270;2022-12-10T14:20:15;2.70;1.00
9323;DHT22;4700;48.822;9.270;2022-12-10T14:23:05;2.60;1.00
9323;DHT22;4700;48.822;9.270;2022-12-10T14:26:12;2.50;1.00
9323;DHT22;4700;48.822;9.270;2022-12-10T14:29:20;2.40;1.00
9323;DHT22;4700;48.822;9.270;2022-12-10T14:32:13;2.40;1.00
9323;DHT22;4700;48.822;9.270;2022-12-10T14:35:06;2.30;1.00
9323;DHT22;4700;48.822;9.270;2022-12-10T14:37:57;2.20;1.00
9323;DHT22;4700;48.822;9.270;2022-12-10T14:40:54;2.10;1.00
9323;DHT22;4700;48.822;9.270;2022-12-10T14:43:48;2.00;1.00
9323;DHT22;4700;48.822;9.270;2022-12-10T14:46:35;1.80;1.00
9323;DHT22;4700;48.822;9.270;2022-12-10T14:49:30;2.10;1.00
9323;DHT22;4700;48.822;9.270;2022-12-10T14:52:42;1.60;1.00
9323;DHT22;4700;48.822;9.270;2022-12-10T14:55:30;1.60;1.00
9323;DHT22;4700;48.822;9.270;2022-12-10T14:58:27;1.50;1.00
9323;DHT22;4700;48.822;9.270;2022-12-10T15:01:27;1.40;1.00
9323;DHT22;4700;48.822;9.270;2022-12-10T15:04:30;1.50;1.00
9323;DHT22;4700;48.822;9.270;2022-12-10T15:07:25;1.40;1.00
9323;DHT22;4700;48.822;9.270;2022-12-10T15:10:34;1.40;1.00
9323;DHT22;4700;48.822;9.270;2022-12-10T15:13:32;1.40;1.00
9323;DHT22;4700;48.822;9.270;2022-12-10T15:16:29;1.40;1.00
9323;DHT22;4700;48.822;9.270;2022-12-10T15:19:19;1.90;1.00
9323;DHT22;4700;48.822;9.270;2022-12-10T15:22:18;1.50;1.00
9323;DHT22;4700;48.822;9.270;2022-12-10T15:25:27;1.60;1.00
9323;DHT22;4700;48.822;9.270;2022-12-10T15:28:26;1.50;1.00
9323;DHT22;4700;48.822;9.270;2022-12-10T15:31:21;1.40;1.00
9323;DHT22;4700;48.822;9.270;2022-12-10T15:34:17;1.40;1.00
9323;DHT22;4700;48.822;9.270;2022-12-10T15:37:21;1.40;1.00
9323;DHT22;4700;48.822;9.270;2022-12-10T15:40:27;1.40;1.00
9323;DHT22;4700;48.822;9.270;2022-12-10T15:43:26;2.20;1.00
9323;DHT22;4700;48.822;9.270;2022-12-10T15:46:28;1.40;1.00
9323;DHT22;4700;48.822;9.270;2022-12-10T15:49:24;1.40;1.00
9323;DHT22;4700;48.822;9.270;2022-12-10T15:52:23;1.30;1.00
9323;DHT22;4700;48.822;9.270;2022-12-10T15:55:37;1.30;1.00
9323;DHT22;4700;48.822;9.270;2022-12-10T15:58:59;1.20;1.00
9323;DHT22;4700;48.822;9.270;2022-12-10T16:02:35;1.20;1.00
9323;DHT22;4700;48.822;9.270;2022-12-10T16:05:47;1.10;1.00
9323;DHT22;4700;48.822;9.270;2022-12-10T16:08:46;1.00;1.00
9323;DHT22;4700;48.822;9.270;2022-12-10T16:11:55;1.00;1.00
9323;DHT22;4700;48.822;9.270;2022-12-10T16:14:57;1.00;1.00
9323;DHT22;4700;48.822;9.270;2022-12-10T16:17:49;1.00;1.00
9323;DHT22;4700;48.822;9.270;2022-12-10T16:20:52;1.00;1.00
9323;DHT22;4700;48.822;9.270;2022-12-10T16:24:17;1.00;1.00
9323;DHT22;4700;48.822;9.270;2022-12-10T16:30:57;0.90;1.00
9323;DHT22;4700;48.822;9.270;2022-12-10T17:41:14;1.00;1.00
9323;DHT22;4700;48.822;9.270;2022-12-10T17:44:00;1.20;1.00
9323;DHT22;4700;48.822;9.270;2022-12-10T17:46:46;1.00;1.00
9323;DHT22;4700;48.822;9.270;2022-12-10T17:49:34;1.00;1.00
9323;DHT22;4700;48.822;9.270;2022-12-10T17:52:25;1.50;1.00
9323;DHT22;4700;48.822;9.270;2022-12-10T20:59:15;0.50;1.00
